Language: 


Des rapports , des résumés tant et plus, au choix de chacun....


Données statistiques de la station
Quotidien Rapport Aout 28, 2017 Unités:  Métrique    Anglais   les deux
« Précédent Jour
Suivant Jour »
Quotidien Hebdomadaire Mensuel Annuel Actuel
  Haut: Bas: Moyen:
Température: 32.6 °C 0.0 °C 21.8 °C
Pt de rosée: 20.0 °C 13.0 °C 16.4 °C
Humidité: 98 % 0 % 70 %
Vitesse du vent: 7.6 km/h 0.0 km/h 0.6 km/h
Rafales: 11.6 km/h - -
Vent:- - South
Pression: 1018.8 hPa 1016.1 hPa -
Précipitation: 0.0 mm    
Historical Graphs
 
 
Données statistiques pour Aout 28, 2017
Heure Température Point de rosée Pression Vent Vitesse du vent Refales Humidité Pluie (taux horaire)
00:00 16.8 °C 15.0 °C 1018.8 hPa NNE 3.2 km/h 6.9 km/h 89 % 0.0 mm
00:05 16.8 °C 15.0 °C 1018.8 hPa Calm   6.9 km/h 89 % 0.0 mm
00:10 16.6 °C 15.0 °C 1018.8 hPa NNE 5.0 km/h 5.0 km/h 89 % 0.0 mm
00:15 16.6 °C 15.0 °C 1018.8 hPa Calm   5.0 km/h 89 % 0.0 mm
00:20 16.6 °C 15.0 °C 1018.8 hPa NNE 2.6 km/h 5.0 km/h 89 % 0.0 mm
00:25 16.6 °C 15.0 °C 1018.8 hPa Calm   5.0 km/h 89 % 0.0 mm
00:30 16.6 °C 15.0 °C 1018.8 hPa North 1.4 km/h 6.9 km/h 89 % 0.0 mm
00:35 16.6 °C 15.0 °C 1018.8 hPa NNE 2.1 km/h 6.9 km/h 89 % 0.0 mm
00:40 16.5 °C 15.0 °C 1018.8 hPa Calm   6.9 km/h 90 % 0.0 mm
00:45 16.5 °C 15.0 °C 1018.8 hPa Calm   6.9 km/h 90 % 0.0 mm
00:50 16.5 °C 15.0 °C 1018.8 hPa Calm   5.8 km/h 90 % 0.0 mm
00:55 16.2 °C 15.0 °C 1018.8 hPa Calm   5.8 km/h 90 % 0.0 mm
01:00 16.2 °C 15.0 °C 1018.8 hPa Calm     90 % 0.0 mm
01:05 16.2 °C 15.0 °C 1018.8 hPa Calm     90 % 0.0 mm
01:10 16.2 °C 15.0 °C 1018.8 hPa Calm     90 % 0.0 mm
01:15 16.2 °C 15.0 °C 1018.8 hPa NE 4.0 km/h 4.0 km/h 90 % 0.0 mm
01:20 15.8 °C 14.0 °C 1018.8 hPa Calm   5.8 km/h 92 % 0.0 mm
01:26 15.8 °C 14.0 °C 1018.8 hPa NE 4.3 km/h 5.8 km/h 92 % 0.0 mm
01:31 15.8 °C 14.0 °C 1018.2 hPa Calm   5.5 km/h 92 % 0.0 mm
01:36 15.8 °C 14.0 °C 1018.2 hPa North 4.3 km/h 5.5 km/h 92 % 0.0 mm
01:41 15.8 °C 15.0 °C 1018.2 hPa North 2.6 km/h 4.7 km/h 93 % 0.0 mm
01:46 15.8 °C 15.0 °C 1018.8 hPa Calm   4.7 km/h 93 % 0.0 mm
01:51 15.8 °C 15.0 °C 1018.8 hPa North 4.0 km/h 4.0 km/h 93 % 0.0 mm
01:56 15.8 °C 15.0 °C 1018.8 hPa Calm   4.3 km/h 93 % 0.0 mm
02:01 15.8 °C 15.0 °C 1018.2 hPa Calm   4.3 km/h 93 % 0.0 mm
02:06 15.8 °C 15.0 °C 1018.2 hPa Calm     93 % 0.0 mm
02:11 15.8 °C 15.0 °C 1018.2 hPa Calm     93 % 0.0 mm
02:16 15.8 °C 15.0 °C 1018.2 hPa Calm     93 % 0.0 mm
02:21 15.5 °C 15.0 °C 1018.2 hPa Calm   2.1 km/h 93 % 0.0 mm
02:26 15.4 °C 14.0 °C 1018.2 hPa Calm   2.1 km/h 93 % 0.0 mm
02:31 15.4 °C 14.0 °C 1018.2 hPa Calm     93 % 0.0 mm
02:36 15.4 °C 14.0 °C 1018.2 hPa Calm     93 % 0.0 mm
02:41 15.4 °C 14.0 °C 1018.2 hPa Calm     93 % 0.0 mm
02:46 15.4 °C 14.0 °C 1018.2 hPa Calm   2.6 km/h 93 % 0.0 mm
02:51 15.4 °C 14.0 °C 1018.2 hPa Calm   3.5 km/h 93 % 0.0 mm
02:56 15.4 °C 14.0 °C 1018.2 hPa Calm   3.5 km/h 93 % 0.0 mm
03:01 0.0 °C 14.0 °C 1018.2 hPa Calm     0 % 0.0 mm
03:07 0.0 °C 14.0 °C 1018.2 hPa Calm     0 % 0.0 mm
03:12 0.0 °C 14.0 °C 1018.2 hPa Calm   3.2 km/h 0 % 0.0 mm
03:17 0.0 °C 14.0 °C 1018.2 hPa Calm   3.2 km/h 0 % 0.0 mm
03:22 0.0 °C 14.0 °C 1018.2 hPa Calm   1.4 km/h 0 % 0.0 mm
03:27 0.0 °C 14.0 °C 1018.2 hPa Calm     0 % 0.0 mm
03:32 0.0 °C 14.0 °C 1018.2 hPa Calm     0 % 0.0 mm
03:37 0.0 °C 14.0 °C 1018.2 hPa Calm     0 % 0.0 mm
03:42 14.1 °C 13.0 °C 1018.2 hPa Calm     94 % 0.0 mm
03:47 14.2 °C 13.0 °C 1018.2 hPa Calm     94 % 0.0 mm
03:52 14.2 °C 13.0 °C 1018.2 hPa Calm     94 % 0.0 mm
03:57 14.2 °C 13.0 °C 1018.2 hPa Calm     94 % 0.0 mm
04:02 14.2 °C 13.0 °C 1018.2 hPa Calm     94 % 0.0 mm
04:07 14.2 °C 13.0 °C 1018.2 hPa Calm     94 % 0.0 mm
04:09 14.2 °C 13.0 °C 1018.2 hPa Calm     94 % 0.0 mm
04:14 14.2 °C 13.0 °C 1018.2 hPa Calm   4.3 km/h 94 % 0.0 mm
04:19 14.2 °C 13.0 °C 1018.2 hPa Calm   5.5 km/h 94 % 0.0 mm
04:25 14.5 °C 14.0 °C 1018.2 hPa Calm   5.5 km/h 96 % 0.0 mm
04:30 14.5 °C 14.0 °C 1018.2 hPa Calm   4.7 km/h 96 % 0.0 mm
04:35 14.5 °C 14.0 °C 1018.2 hPa NNE 1.4 km/h 4.0 km/h 96 % 0.0 mm
04:40 14.5 °C 14.0 °C 1018.2 hPa Calm   5.8 km/h 96 % 0.0 mm
04:45 14.5 °C 14.0 °C 1018.2 hPa Calm   5.8 km/h 96 % 0.0 mm
04:50 14.5 °C 14.0 °C 1018.2 hPa Calm   5.0 km/h 96 % 0.0 mm
04:55 14.5 °C 14.0 °C 1018.2 hPa Calm   5.8 km/h 96 % 0.0 mm
05:00 14.5 °C 14.0 °C 1018.2 hPa NE 5.5 km/h 6.1 km/h 96 % 0.0 mm
05:05 14.5 °C 14.0 °C 1018.2 hPa NNE 4.7 km/h 6.1 km/h 96 % 0.0 mm
05:10 14.5 °C 14.0 °C 1018.2 hPa Calm   6.1 km/h 96 % 0.0 mm
05:15 14.5 °C 14.0 °C 1018.2 hPa Calm   6.1 km/h 96 % 0.0 mm
05:20 14.5 °C 14.0 °C 1018.2 hPa Calm   5.5 km/h 96 % 0.0 mm
05:25 14.5 °C 14.0 °C 1018.2 hPa Calm   4.0 km/h 96 % 0.0 mm
05:30 14.5 °C 14.0 °C 1018.2 hPa Calm   4.3 km/h 96 % 0.0 mm
05:32 14.5 °C 14.0 °C 1018.2 hPa Calm   4.3 km/h 96 % 0.0 mm
05:37 14.5 °C 14.0 °C 1018.2 hPa Calm   4.3 km/h 96 % 0.0 mm
05:42 14.5 °C 14.0 °C 1018.2 hPa Calm   4.3 km/h 96 % 0.0 mm
05:47 14.5 °C 14.0 °C 1018.2 hPa North 2.6 km/h 5.0 km/h 96 % 0.0 mm
05:52 14.5 °C 14.0 °C 1018.2 hPa NE 5.0 km/h 5.0 km/h 96 % 0.0 mm
05:57 14.5 °C 14.0 °C 1018.2 hPa Calm   5.5 km/h 96 % 0.0 mm
06:02 14.4 °C 14.0 °C 1018.2 hPa Calm   5.5 km/h 97 % 0.0 mm
06:07 14.4 °C 14.0 °C 1018.2 hPa NE 2.6 km/h 4.3 km/h 96 % 0.0 mm
06:12 14.4 °C 14.0 °C 1018.2 hPa Calm   3.5 km/h 96 % 0.0 mm
06:17 14.4 °C 14.0 °C 1018.2 hPa Calm   3.5 km/h 96 % 0.0 mm
06:22 14.4 °C 14.0 °C 1018.2 hPa Calm   4.0 km/h 96 % 0.0 mm
06:28 14.4 °C 14.0 °C 1018.2 hPa Calm   4.0 km/h 96 % 0.0 mm
06:33 14.3 °C 14.0 °C 1018.2 hPa Calm   5.0 km/h 97 % 0.0 mm
06:38 14.3 °C 14.0 °C 1018.2 hPa Calm   6.4 km/h 97 % 0.0 mm
06:43 14.3 °C 14.0 °C 1018.2 hPa Calm   6.4 km/h 97 % 0.0 mm
06:48 14.3 °C 14.0 °C 1018.2 hPa Calm   5.8 km/h 97 % 0.0 mm
06:53 14.3 °C 14.0 °C 1018.2 hPa Calm   4.0 km/h 97 % 0.0 mm
06:58 14.3 °C 14.0 °C 1018.2 hPa Calm   4.0 km/h 97 % 0.0 mm
07:03 14.2 °C 14.0 °C 1018.2 hPa Calm     97 % 0.0 mm
07:08 14.2 °C 14.0 °C 1018.2 hPa Calm     97 % 0.0 mm
07:13 14.2 °C 14.0 °C 1018.2 hPa Calm     97 % 0.0 mm
07:18 14.2 °C 14.0 °C 1018.2 hPa Calm   3.5 km/h 97 % 0.0 mm
07:23 14.3 °C 14.0 °C 1018.2 hPa Calm   3.5 km/h 97 % 0.0 mm
07:28 14.3 °C 14.0 °C 1018.2 hPa Calm     97 % 0.0 mm
07:33 14.3 °C 14.0 °C 1018.2 hPa Calm   1.4 km/h 97 % 0.0 mm
07:38 14.5 °C 15.0 °C 1018.2 hPa Calm   1.4 km/h 98 % 0.0 mm
07:43 14.5 °C 15.0 °C 1018.2 hPa Calm   2.6 km/h 98 % 0.0 mm
07:48 14.8 °C 15.0 °C 1018.2 hPa Calm   2.6 km/h 98 % 0.0 mm
07:53 14.8 °C 15.0 °C 1018.2 hPa Calm     98 % 0.0 mm
07:58 14.8 °C 15.0 °C 1018.2 hPa Calm     98 % 0.0 mm
08:03 14.8 °C 15.0 °C 1018.2 hPa Calm     98 % 0.0 mm
08:08 14.8 °C 15.0 °C 1018.2 hPa Calm     98 % 0.0 mm
08:13 14.8 °C 15.0 °C 1018.2 hPa Calm     98 % 0.0 mm
08:14 14.8 °C 15.0 °C 1018.2 hPa Calm     98 % 0.0 mm
08:19 14.8 °C 15.0 °C 1018.2 hPa Calm     98 % 0.0 mm
08:24 16.7 °C 16.0 °C 1018.2 hPa Calm     97 % 0.0 mm
08:29 16.7 °C 16.0 °C 1018.2 hPa Calm   2.1 km/h 97 % 0.0 mm
08:34 16.9 °C 17.0 °C 1018.2 hPa NNE 1.8 km/h 2.1 km/h 96 % 0.0 mm
08:39 17.1 °C 17.0 °C 1018.2 hPa Calm   1.8 km/h 96 % 0.0 mm
08:44 17.3 °C 17.0 °C 1018.2 hPa Calm   4.3 km/h 96 % 0.0 mm
08:49 17.5 °C 17.0 °C 1018.2 hPa Calm   5.8 km/h 95 % 0.0 mm
08:54 17.6 °C 17.0 °C 1018.2 hPa Calm   5.8 km/h 95 % 0.0 mm
08:59 17.7 °C 17.0 °C 1018.2 hPa Calm   1.8 km/h 95 % 0.0 mm
09:04 17.7 °C 17.0 °C 1018.2 hPa Calm     95 % 0.0 mm
09:09 18.2 °C 17.0 °C 1018.2 hPa Calm     94 % 0.0 mm
09:14 18.9 °C 18.0 °C 1018.2 hPa Calm     94 % 0.0 mm
09:19 19.0 °C 18.0 °C 1018.2 hPa Calm     93 % 0.0 mm
09:22 19.0 °C 18.0 °C 1018.2 hPa Calm     93 % 0.0 mm
09:27 19.4 °C 18.0 °C 1018.2 hPa Calm     93 % 0.0 mm
09:32 19.7 °C 18.0 °C 1018.2 hPa Calm     92 % 0.0 mm
09:37 19.8 °C 18.0 °C 1018.2 hPa Calm     91 % 0.0 mm
09:42 20.0 °C 19.0 °C 1018.2 hPa Calm     91 % 0.0 mm
09:47 20.1 °C 18.0 °C 1018.2 hPa Calm     90 % 0.0 mm
09:57 20.7 °C 19.0 °C 1018.2 hPa Calm     89 % 0.0 mm
10:03 21.1 °C 19.0 °C 1018.2 hPa Calm     87 % 0.0 mm
10:08 21.2 °C 19.0 °C 1018.2 hPa North 1.4 km/h 3.2 km/h 87 % 0.0 mm
10:13 21.2 °C 19.0 °C 1018.2 hPa Calm   3.2 km/h 87 % 0.0 mm
10:18 22.2 °C 20.0 °C 1018.2 hPa SSE 1.4 km/h 1.4 km/h 85 % 0.0 mm
10:23 22.6 °C 20.0 °C 1018.2 hPa Calm   5.0 km/h 84 % 0.0 mm
10:28 22.9 °C 20.0 °C 1018.2 hPa Calm   5.0 km/h 81 % 0.0 mm
10:33 23.1 °C 20.0 °C 1018.2 hPa Calm     80 % 0.0 mm
10:38 23.1 °C 20.0 °C 1018.2 hPa Calm   2.1 km/h 80 % 0.0 mm
10:43 23.1 °C 20.0 °C 1018.2 hPa Calm   2.1 km/h 80 % 0.0 mm
10:48 24.0 °C 20.0 °C 1018.8 hPa Calm   1.8 km/h 78 % 0.0 mm
10:53 24.3 °C 20.0 °C 1018.8 hPa Calm     76 % 0.0 mm
10:58 24.7 °C 20.0 °C 1018.8 hPa Calm     73 % 0.0 mm
11:03 24.7 °C 20.0 °C 1018.8 hPa Calm     73 % 0.0 mm
11:08 25.2 °C 20.0 °C 1018.8 hPa NNE 3.5 km/h 3.5 km/h 70 % 0.0 mm
11:13 25.3 °C 20.0 °C 1018.8 hPa Calm   3.5 km/h 70 % 0.0 mm
11:18 25.9 °C 20.0 °C 1018.2 hPa North 3.2 km/h 4.3 km/h 70 % 0.0 mm
11:23 26.3 °C 20.0 °C 1018.2 hPa Calm   4.3 km/h 67 % 0.0 mm
11:28 26.4 °C 20.0 °C 1018.2 hPa Calm   3.5 km/h 67 % 0.0 mm
11:33 26.4 °C 20.0 °C 1018.2 hPa Calm   3.5 km/h 66 % 0.0 mm
11:39 26.4 °C 20.0 °C 1018.2 hPa Calm   1.8 km/h 65 % 0.0 mm
11:44 26.7 °C 20.0 °C 1018.2 hPa Calm   2.6 km/h 65 % 0.0 mm
11:49 26.7 °C 20.0 °C 1018.2 hPa Calm   3.2 km/h 64 % 0.0 mm
11:54 27.0 °C 20.0 °C 1018.2 hPa Calm   3.2 km/h 63 % 0.0 mm
11:59 27.1 °C 19.0 °C 1018.2 hPa Calm   1.8 km/h 62 % 0.0 mm
12:04 27.1 °C 19.0 °C 1018.8 hPa Calm     62 % 0.0 mm
12:09 27.3 °C 19.0 °C 1018.8 hPa Calm   5.0 km/h 61 % 0.0 mm
12:14 27.6 °C 20.0 °C 1018.8 hPa Calm   5.0 km/h 60 % 0.0 mm
12:19 27.7 °C 20.0 °C 1018.2 hPa Calm   5.0 km/h 60 % 0.0 mm
12:24 27.6 °C 20.0 °C 1018.2 hPa Calm     60 % 0.0 mm
12:29 27.6 °C 20.0 °C 1018.2 hPa Calm     60 % 0.0 mm
12:34 28.3 °C 20.0 °C 1018.2 hPa Calm     60 % 0.0 mm
12:39 28.3 °C 20.0 °C 1018.2 hPa Calm     60 % 0.0 mm
12:44 28.3 °C 20.0 °C 1018.2 hPa Calm     60 % 0.0 mm
12:49 28.8 °C 20.0 °C 1018.2 hPa Calm     57 % 0.0 mm
12:54 28.9 °C 20.0 °C 1018.2 hPa Calm   4.0 km/h 56 % 0.0 mm
12:59 29.0 °C 19.0 °C 1018.2 hPa Calm   4.0 km/h 55 % 0.0 mm
13:05 29.0 °C 19.0 °C 1018.2 hPa Calm     55 % 0.0 mm
13:10 29.0 °C 19.0 °C 1018.2 hPa NW 1.8 km/h 5.8 km/h 55 % 0.0 mm
13:15 29.0 °C 19.0 °C 1018.2 hPa Calm   5.8 km/h 55 % 0.0 mm
13:20 29.3 °C 19.0 °C 1018.2 hPa Calm   4.0 km/h 53 % 0.0 mm
13:25 29.1 °C 19.0 °C 1018.2 hPa Calm   4.0 km/h 53 % 0.0 mm
13:30 29.6 °C 19.0 °C 1018.2 hPa Calm     53 % 0.0 mm
13:35 29.9 °C 19.0 °C 1018.2 hPa Calm     51 % 0.0 mm
13:40 29.9 °C 19.0 °C 1018.2 hPa Calm     51 % 0.0 mm
13:45 29.9 °C 19.0 °C 1016.8 hPa Calm     51 % 0.0 mm
13:50 29.9 °C 19.0 °C 1016.8 hPa Calm   4.3 km/h 51 % 0.0 mm
13:55 30.3 °C 19.0 °C 1016.8 hPa Calm   5.0 km/h 51 % 0.0 mm
14:00 30.3 °C 19.0 °C 1016.8 hPa Calm   5.0 km/h 51 % 0.0 mm
14:05 30.5 °C 19.0 °C 1016.8 hPa Calm   6.4 km/h 49 % 0.0 mm
14:10 30.5 °C 19.0 °C 1016.8 hPa Calm   8.7 km/h 48 % 0.0 mm
14:15 30.5 °C 18.0 °C 1016.8 hPa Calm   8.7 km/h 46 % 0.0 mm
14:20 30.9 °C 19.0 °C 1016.8 hPa WNW 4.7 km/h 4.7 km/h 48 % 0.0 mm
14:25 30.9 °C 19.0 °C 1016.8 hPa Calm   4.7 km/h 48 % 0.0 mm
14:30 30.9 °C 19.0 °C 1016.8 hPa Calm   4.7 km/h 48 % 0.0 mm
14:35 30.9 °C 18.0 °C 1016.8 hPa Calm   4.7 km/h 45 % 0.0 mm
14:40 30.9 °C 18.0 °C 1016.8 hPa Calm   3.5 km/h 45 % 0.0 mm
14:45 31.2 °C 18.0 °C 1016.8 hPa Calm   3.5 km/h 45 % 0.0 mm
14:51 31.2 °C 18.0 °C 1016.8 hPa WSW 2.1 km/h 7.2 km/h 45 % 0.0 mm
14:56 31.1 °C 18.0 °C 1016.8 hPa Calm   8.7 km/h 44 % 0.0 mm
15:01 31.4 °C 18.0 °C 1016.8 hPa Calm   8.7 km/h 45 % 0.0 mm
15:06 31.4 °C 18.0 °C 1016.8 hPa Calm   5.8 km/h 45 % 0.0 mm
15:11 31.5 °C 18.0 °C 1016.8 hPa East 4.7 km/h 5.8 km/h 43 % 0.0 mm
15:16 31.5 °C 18.0 °C 1016.8 hPa NE 1.4 km/h 4.7 km/h 43 % 0.0 mm
15:21 31.3 °C 17.0 °C 1016.8 hPa Calm   4.0 km/h 43 % 0.0 mm
15:26 31.7 °C 18.0 °C 1016.8 hPa East 5.5 km/h 5.5 km/h 44 % 0.0 mm
15:31 31.9 °C 18.0 °C 1016.8 hPa South 4.0 km/h 5.5 km/h 43 % 0.0 mm
15:36 32.1 °C 18.0 °C 1016.8 hPa Calm   5.0 km/h 42 % 0.0 mm
15:41 32.2 °C 18.0 °C 1016.8 hPa Calm   6.4 km/h 42 % 0.0 mm
15:46 32.5 °C 18.0 °C 1016.8 hPa Calm   6.4 km/h 41 % 0.0 mm
15:51 32.6 °C 18.0 °C 1016.8 hPa Calm   4.0 km/h 40 % 0.0 mm
15:56 32.2 °C 17.0 °C 1016.8 hPa Calm   4.3 km/h 40 % 0.0 mm
16:01 31.9 °C 17.0 °C 1016.8 hPa Calm   4.3 km/h 40 % 0.0 mm
16:06 31.8 °C 16.0 °C 1016.8 hPa Calm   8.7 km/h 39 % 0.0 mm
16:08 31.8 °C 17.0 °C 1016.8 hPa Calm   8.7 km/h 40 % 0.0 mm
16:13 31.7 °C 17.0 °C 1016.8 hPa WSW 3.2 km/h 8.7 km/h 41 % 0.0 mm
16:15 31.7 °C 17.0 °C 1016.1 hPa Calm   8.7 km/h 40 % 0.0 mm
16:21 31.8 °C 17.0 °C 1016.1 hPa North 4.0 km/h 6.9 km/h 41 % 0.0 mm
16:26 31.8 °C 17.0 °C 1016.1 hPa Calm   6.9 km/h 41 % 0.0 mm
16:31 31.7 °C 17.0 °C 1016.8 hPa Calm   4.0 km/h 40 % 0.0 mm
16:36 31.8 °C 17.0 °C 1016.8 hPa NNW 5.0 km/h 5.0 km/h 40 % 0.0 mm
16:41 32.0 °C 17.0 °C 1016.8 hPa Calm   5.0 km/h 40 % 0.0 mm
16:46 32.3 °C 17.0 °C 1016.8 hPa Calm   5.8 km/h 40 % 0.0 mm
16:51 32.4 °C 17.0 °C 1016.8 hPa SW 5.5 km/h 5.8 km/h 40 % 0.0 mm
16:56 32.3 °C 17.0 °C 1016.8 hPa West 4.7 km/h 5.8 km/h 39 % 0.0 mm
17:01 32.3 °C 17.0 °C 1016.8 hPa SW 4.7 km/h 9.3 km/h 39 % 0.0 mm
17:06 32.4 °C 17.0 °C 1016.8 hPa WNW 2.6 km/h 9.3 km/h 39 % 0.0 mm
17:11 32.1 °C 16.0 °C 1016.8 hPa West 6.1 km/h 9.3 km/h 38 % 0.0 mm
17:16 31.7 °C 16.0 °C 1016.8 hPa West 7.6 km/h 11.6 km/h 39 % 0.0 mm
17:21 31.6 °C 16.0 °C 1016.8 hPa Calm   11.6 km/h 38 % 0.0 mm
17:26 31.9 °C 17.0 °C 1016.8 hPa Calm   7.6 km/h 39 % 0.0 mm
17:31 32.1 °C 16.0 °C 1016.8 hPa Calm     38 % 0.0 mm
17:36 32.2 °C 16.0 °C 1016.8 hPa Calm     38 % 0.0 mm
17:41 32.4 °C 16.0 °C 1016.8 hPa SW 4.0 km/h 4.0 km/h 38 % 0.0 mm
17:46 32.2 °C 16.0 °C 1016.8 hPa Calm   4.0 km/h 38 % 0.0 mm
17:51 32.0 °C 17.0 °C 1016.8 hPa Calm   6.4 km/h 39 % 0.0 mm
17:56 31.9 °C 17.0 °C 1016.8 hPa Calm   6.9 km/h 40 % 0.0 mm
18:01 31.8 °C 16.0 °C 1016.8 hPa Calm   6.9 km/h 39 % 0.0 mm
18:06 32.0 °C 17.0 °C 1016.8 hPa Calm     39 % 0.0 mm
18:11 31.9 °C 17.0 °C 1016.8 hPa Calm   6.1 km/h 41 % 0.0 mm
18:16 31.5 °C 16.0 °C 1016.1 hPa WSW 4.0 km/h 6.4 km/h 39 % 0.0 mm
18:21 31.7 °C 17.0 °C 1016.1 hPa Calm   6.4 km/h 40 % 0.0 mm
18:27 31.7 °C 17.0 °C 1016.1 hPa Calm     40 % 0.0 mm
18:32 31.5 °C 16.0 °C 1016.1 hPa Calm     39 % 0.0 mm
18:37 31.3 °C 16.0 °C 1016.1 hPa Calm     40 % 0.0 mm
18:42 31.1 °C 16.0 °C 1016.1 hPa Calm     40 % 0.0 mm
18:47 31.0 °C 16.0 °C 1016.1 hPa Calm     40 % 0.0 mm
18:52 30.8 °C 16.0 °C 1016.1 hPa Calm     41 % 0.0 mm
18:57 30.3 °C 16.0 °C 1016.1 hPa Calm     41 % 0.0 mm
19:02 29.8 °C 15.0 °C 1016.1 hPa Calm     42 % 0.0 mm
19:07 29.4 °C 15.0 °C 1016.1 hPa Calm     42 % 0.0 mm
19:12 29.1 °C 16.0 °C 1016.1 hPa Calm     44 % 0.0 mm
19:17 28.8 °C 16.0 °C 1016.1 hPa Calm     44 % 0.0 mm
19:22 28.8 °C 16.0 °C 1016.1 hPa Calm     45 % 0.0 mm
19:27 28.7 °C 16.0 °C 1016.1 hPa Calm   2.6 km/h 45 % 0.0 mm
19:32 28.5 °C 17.0 °C 1016.1 hPa Calm   2.6 km/h 47 % 0.0 mm
19:37 28.3 °C 16.0 °C 1016.1 hPa Calm     47 % 0.0 mm
19:42 28.1 °C 16.0 °C 1016.1 hPa Calm     47 % 0.0 mm
19:47 27.8 °C 16.0 °C 1016.1 hPa Calm     49 % 0.0 mm
19:52 27.5 °C 17.0 °C 1016.1 hPa Calm     50 % 0.0 mm
19:57 27.0 °C 17.0 °C 1016.1 hPa Calm     52 % 0.0 mm
20:02 26.5 °C 17.0 °C 1016.1 hPa Calm     54 % 0.0 mm
20:07 26.1 °C 16.0 °C 1016.1 hPa Calm     55 % 0.0 mm
20:13 25.8 °C 16.0 °C 1016.1 hPa Calm     56 % 0.0 mm
20:18 25.5 °C 17.0 °C 1016.1 hPa Calm     57 % 0.0 mm
20:23 25.2 °C 17.0 °C 1016.1 hPa Calm     59 % 0.0 mm
20:28 24.7 °C 17.0 °C 1016.1 hPa Calm     61 % 0.0 mm
20:33 24.4 °C 17.0 °C 1016.1 hPa Calm     62 % 0.0 mm
20:43 23.5 °C 17.0 °C 1016.1 hPa Calm     65 % 0.0 mm
20:48 23.2 °C 17.0 °C 1016.1 hPa Calm     66 % 0.0 mm
20:53 22.9 °C 17.0 °C 1016.1 hPa Calm     67 % 0.0 mm
20:58 22.6 °C 17.0 °C 1016.1 hPa Calm     68 % 0.0 mm
21:03 22.2 °C 16.0 °C 1016.1 hPa Calm     69 % 0.0 mm
21:08 21.9 °C 16.0 °C 1016.1 hPa Calm     70 % 0.0 mm
21:13 21.5 °C 16.0 °C 1016.1 hPa Calm     70 % 0.0 mm
21:18 21.2 °C 16.0 °C 1016.8 hPa Calm     71 % 0.0 mm
21:23 21.3 °C 16.0 °C 1016.8 hPa NNE 4.7 km/h 6.1 km/h 73 % 0.0 mm
21:28 21.5 °C 17.0 °C 1016.8 hPa NNE 4.7 km/h 6.1 km/h 73 % 0.0 mm
21:33 21.5 °C 17.0 °C 1016.1 hPa ENE 4.3 km/h 4.7 km/h 74 % 0.0 mm
21:38 21.5 °C 17.0 °C 1016.1 hPa NNE 4.3 km/h 4.7 km/h 75 % 0.0 mm
21:44 21.4 °C 17.0 °C 1016.1 hPa Calm   4.7 km/h 75 % 0.0 mm
21:49 21.3 °C 17.0 °C 1016.1 hPa Calm   4.3 km/h 76 % 0.0 mm
21:54 21.2 °C 17.0 °C 1016.1 hPa Calm     76 % 0.0 mm
21:59 21.1 °C 17.0 °C 1016.1 hPa Calm     76 % 0.0 mm
22:04 21.0 °C 17.0 °C 1016.1 hPa Calm   4.7 km/h 77 % 0.0 mm
22:09 21.0 °C 17.0 °C 1016.1 hPa North 5.0 km/h 5.8 km/h 77 % 0.0 mm
22:19 20.8 °C 17.0 °C 1016.1 hPa Calm   5.5 km/h 78 % 0.0 mm
22:24 20.7 °C 17.0 °C 1016.1 hPa Calm   5.5 km/h 78 % 0.0 mm
22:29 20.7 °C 17.0 °C 1016.1 hPa Calm     79 % 0.0 mm
22:34 20.6 °C 17.0 °C 1016.8 hPa Calm     79 % 0.0 mm
22:39 20.5 °C 17.0 °C 1016.8 hPa Calm     79 % 0.0 mm
22:44 20.4 °C 17.0 °C 1016.8 hPa Calm     79 % 0.0 mm
22:49 20.3 °C 17.0 °C 1016.8 hPa Calm     79 % 0.0 mm
22:54 20.2 °C 17.0 °C 1016.8 hPa Calm     80 % 0.0 mm
22:59 20.1 °C 17.0 °C 1016.8 hPa Calm     80 % 0.0 mm
23:04 19.9 °C 17.0 °C 1016.8 hPa Calm     80 % 0.0 mm
23:09 19.7 °C 16.0 °C 1016.8 hPa Calm     80 % 0.0 mm
23:14 19.5 °C 16.0 °C 1016.8 hPa Calm     81 % 0.0 mm
23:19 19.3 °C 16.0 °C 1016.1 hPa Calm     81 % 0.0 mm
23:24 19.2 °C 16.0 °C 1016.1 hPa Calm   2.6 km/h 82 % 0.0 mm
23:29 19.2 °C 16.0 °C 1016.1 hPa Calm   2.6 km/h 82 % 0.0 mm
23:34 19.1 °C 16.0 °C 1016.1 hPa Calm   5.5 km/h 83 % 0.0 mm
23:39 19.1 °C 16.0 °C 1016.1 hPa Calm   6.1 km/h 83 % 0.0 mm
23:44 19.1 °C 16.0 °C 1016.1 hPa North 4.0 km/h 6.1 km/h 84 % 0.0 mm
23:49 19.1 °C 16.0 °C 1016.1 hPa Calm   6.9 km/h 84 % 0.0 mm
23:54 19.1 °C 16.0 °C 1016.1 hPa Calm   6.9 km/h 84 % 0.0 mm
23:59 19.0 °C 17.0 °C 1016.1 hPa Calm   4.7 km/h 85 % 0.0 mm
Le Gheer Warneton
Courtoisie de Weather Underground - 2.25 mb

Mise a jour : 18/12/2017 04:04:13
Généré par Cumulus 1.9.4 (1099)